Airport View

Enter AWOS ICAO identifier for current METAR.

ex. KFNL

KAAO 190554Z AUTO 34016KT 10SM CLR 09/03 A3000 RMK AO2 SLP159 T00890028 10139 20089 401940083 53020 TSNO

19 Apr 2019 06:22

Frequency: 134.025

Phone: 316-636-2541

Other Area AWOS: KBEC - K1K1 - KIAB - K3AU

TAF KIAB 190200Z 1902/2008 34015G25KT 9999 BKN050 QNH2991INS BECMG 1908/1909 34012KT 9999 SCT050 QNH2994INS BECMG 1914/1915 35020G25KT 9999 SKC 510053 QNH3004INS BECMG 1923/1924 VRB06KT 9999 SKC QNH3001INS TX17/1921Z TN06/1912Z